Cape Express — HO5337 — position and weather

sailwx.info

Track history (hours):
 
Tides and Currents Weather Stations Pressure Air Temp Water Temp Dewpoint Dewpoint Depression Visibility Wind Speed Wind Dir Waves Ship Positions

Cape Express

Last reported at 2017-Jan-19 01:34 UTC. Time now 2017-Jan-19 02:15 UTC.
Position N 26°04' W 080°08'.

Length 29 m; draft 2.1 m.

Type: Cargo ship. MMSI: 370269000.

Date/timePositionNaut miles runAvg speedWind from/ knotsBaromVisibWave heightAir tempDewpointWater temp
2017-Jan-19 01:34N 26°04' W 080°08'7 6.5
2017-Jan-19 00:33N 26°07' W 080°02'8 8.0
2017-Jan-18 23:33N 26°09' W 079°53'8 8.4
2017-Jan-18 22:33N 26°11' W 079°44'3 0.2
2017-Jan-18 08:33N 26°13' W 079°41'1010.3
2017-Jan-18 07:33N 26°10' W 079°52'1010.3
2017-Jan-18 06:33N 26°06' W 080°02'5 5.3
2017-Jan-18 05:34N 26°04' W 080°08'0 0.1
2017-Jan-18 04:33N 26°04' W 080°08'0 0.0
2017-Jan-18 03:34N 26°04' W 080°08'0 0.0
2017-Jan-18 02:34N 26°04' W 080°08'0 0.0
2017-Jan-18 01:34N 26°04' W 080°08'4 4.1
2017-Jan-18 00:34N 26°04' W 080°03'1212.3
2017-Jan-17 23:34N 25°56' W 079°54'1212.2
2017-Jan-17 22:34N 25°47' W 079°44'9 0.6
2017-Jan-17 07:24N 25°47' W 079°34'6 7.0
2017-Jan-17 06:33N 25°50' W 079°39'7 6.4
2017-Jan-17 05:33N 25°54' W 079°45'6 6.2
2017-Jan-17 04:33N 25°58' W 079°50'5 5.2
2017-Jan-17 03:33N 26°01' W 079°54'5 5.5
2017-Jan-17 02:33N 26°04' W 079°60'6 6.4
2017-Jan-17 01:33N 26°05' W 080°07'2 2.1
2017-Jan-17 00:34N 26°04' W 080°08'0 0.0
2017-Jan-16 23:34N 26°04' W 080°08'0 0.0
2017-Jan-16 22:34N 26°04' W 080°08'0 0.0
2017-Jan-16 21:34N 26°04' W 080°08'0 0.0
2017-Jan-16 20:33N 26°04' W 080°08'0 0.0
2017-Jan-16 19:34N 26°04' W 080°08'0 0.0
2017-Jan-16 18:34N 26°04' W 080°08'0 0.1
2017-Jan-16 17:34N 26°04' W 080°08'0 0.0
2017-Jan-16 16:34N 26°04' W 080°08'0 0.0
2017-Jan-16 15:34N 26°04' W 080°08'0 0.0
2017-Jan-16 14:34N 26°04' W 080°08'0 0.3
2017-Jan-16 13:33N 26°04' W 080°08'2 2.2
2017-Jan-16 12:33N 26°06' W 080°06'10 9.6
2017-Jan-16 11:33N 26°03' W 079°56'10 9.9
2017-Jan-16 10:33N 26°01' W 079°45'  
2017-Jan-11 15:34N 25°60' W 079°41'6 6.0
2017-Jan-11 14:33N 26°01' W 079°47'6 5.6
2017-Jan-11 13:33N 26°02' W 079°54'5 5.1
2017-Jan-11 12:34N 26°03' W 079°59'6 5.6
2017-Jan-11 11:33N 26°05' W 080°05'3 3.1
2017-Jan-11 10:33N 26°04' W 080°08'0 0.0
2017-Jan-11 09:33N 26°04' W 080°08'0 0.0
2017-Jan-11 08:33N 26°04' W 080°08'0 0.0
2017-Jan-11 07:34N 26°04' W 080°08'0 0.0
2017-Jan-11 06:33N 26°04' W 080°08'0 0.0
2017-Jan-11 05:34N 26°04' W 080°08'0 0.0
2017-Jan-11 04:34N 26°04' W 080°08'0 0.0
2017-Jan-11 03:34N 26°04' W 080°08'0 0.0
2017-Jan-11 02:34N 26°04' W 080°08'0 0.0
2017-Jan-11 01:34N 26°04' W 080°08'0 0.0
2017-Jan-11 00:34N 26°04' W 080°08'0 0.0
2017-Jan-10 23:34N 26°04' W 080°08'0 0.0
2017-Jan-10 22:33N 26°04' W 080°08'0 0.0
2017-Jan-10 21:34N 26°04' W 080°08'0 0.0
2017-Jan-10 20:34N 26°04' W 080°08'0 0.0
2017-Jan-10 19:34N 26°04' W 080°08'0 0.0
2017-Jan-10 18:34N 26°04' W 080°08'0 0.0
2017-Jan-10 17:34N 26°04' W 080°08'0 0.0
2017-Jan-10 16:34N 26°04' W 080°08'0 0.0
2017-Jan-10 15:34N 26°04' W 080°08'4 4.2
2017-Jan-10 14:34N 26°06' W 080°04'1 1.1
2017-Jan-10 13:34N 26°05' W 080°05'3 3.1
2017-Jan-10 12:34N 26°04' W 080°08'0 0.0
2017-Jan-10 11:34N 26°04' W 080°08'0 0.0
2017-Jan-10 10:34N 26°04' W 080°08'0 0.0
2017-Jan-10 09:34N 26°04' W 080°08'0 0.0
2017-Jan-10 08:34N 26°04' W 080°08'0 0.0
2017-Jan-10 07:34N 26°04' W 080°08'0 0.0
2017-Jan-10 06:34N 26°04' W 080°08'0 0.0
2017-Jan-10 05:34N 26°04' W 080°08'0 0.0
2017-Jan-10 04:34N 26°04' W 080°08'0 0.0
2017-Jan-10 03:34N 26°04' W 080°08'0 0.0
2017-Jan-10 02:34N 26°04' W 080°08'0 0.0
2017-Jan-10 01:34N 26°04' W 080°08'0 0.0
2017-Jan-10 00:34N 26°04' W 080°08'0 0.0
2017-Jan-09 23:34N 26°04' W 080°08'0 0.0
2017-Jan-09 22:34N 26°04' W 080°08'0 0.0
2017-Jan-09 21:34N 26°04' W 080°08'0 0.0
2017-Jan-09 20:34N 26°04' W 080°08'0 0.0
2017-Jan-09 19:34N 26°04' W 080°08'0 0.0
2017-Jan-09 18:34N 26°04' W 080°08'0 0.0
2017-Jan-09 17:34N 26°04' W 080°08'0 0.0
2017-Jan-09 16:34N 26°04' W 080°08'0 0.0
2017-Jan-09 15:33N 26°04' W 080°08'0 0.0
2017-Jan-09 14:33N 26°04' W 080°08'0 0.0
2017-Jan-09 13:34N 26°04' W 080°08'0 0.0
2017-Jan-09 12:34N 26°04' W 080°08'0 0.0
2017-Jan-09 11:34N 26°04' W 080°08'0 0.0
2017-Jan-09 10:34N 26°04' W 080°08'0 0.0
2017-Jan-09 09:34N 26°04' W 080°08'0 0.0
2017-Jan-09 08:34N 26°04' W 080°08'0 0.0
2017-Jan-09 07:34N 26°04' W 080°08'0 0.0
2017-Jan-09 06:34N 26°04' W 080°08'0 0.0
2017-Jan-09 05:34N 26°04' W 080°08'0 0.0
2017-Jan-09 04:33N 26°04' W 080°08'0 0.0
2017-Jan-09 03:33N 26°04' W 080°08'0 0.0
2017-Jan-09 02:34N 26°04' W 080°08'0 0.0
2017-Jan-09 01:34N 26°04' W 080°08'  
Track history (hours):
 
Tides and Currents Weather Stations Pressure Air Temp Water Temp Dewpoint Dewpoint Depression Visibility Wind Speed Wind Dir Waves Ship Positions

Cape Express

Last reported at 2017-Jan-19 01:34 UTC. Time now 2017-Jan-19 02:15 UTC.
Position N 26°04' W 080°08'.

Length 29 m; draft 2.1 m.

Type: Cargo ship. MMSI: 370269000.

Date/timePositionNaut miles runAvg speedWind from/ knotsBaromVisibWave heightAir tempDewpointWater temp
2017-Jan-19 01:34N 26°04' W 080°08'7 6.5
2017-Jan-19 00:33N 26°07' W 080°02'8 8.0
2017-Jan-18 23:33N 26°09' W 079°53'8 8.4
2017-Jan-18 22:33N 26°11' W 079°44'3 0.2
2017-Jan-18 08:33N 26°13' W 079°41'1010.3
2017-Jan-18 07:33N 26°10' W 079°52'1010.3
2017-Jan-18 06:33N 26°06' W 080°02'5 5.3
2017-Jan-18 05:34N 26°04' W 080°08'0 0.1
2017-Jan-18 04:33N 26°04' W 080°08'0 0.0
2017-Jan-18 03:34N 26°04' W 080°08'0 0.0
2017-Jan-18 02:34N 26°04' W 080°08'0 0.0
2017-Jan-18 01:34N 26°04' W 080°08'4 4.1
2017-Jan-18 00:34N 26°04' W 080°03'1212.3
2017-Jan-17 23:34N 25°56' W 079°54'1212.2
2017-Jan-17 22:34N 25°47' W 079°44'9 0.6
2017-Jan-17 07:24N 25°47' W 079°34'6 7.0
2017-Jan-17 06:33N 25°50' W 079°39'7 6.4
2017-Jan-17 05:33N 25°54' W 079°45'6 6.2
2017-Jan-17 04:33N 25°58' W 079°50'5 5.2
2017-Jan-17 03:33N 26°01' W 079°54'5 5.5
2017-Jan-17 02:33N 26°04' W 079°60'6 6.4
2017-Jan-17 01:33N 26°05' W 080°07'2 2.1
2017-Jan-17 00:34N 26°04' W 080°08'0 0.0
2017-Jan-16 23:34N 26°04' W 080°08'0 0.0
2017-Jan-16 22:34N 26°04' W 080°08'0 0.0
2017-Jan-16 21:34N 26°04' W 080°08'0 0.0
2017-Jan-16 20:33N 26°04' W 080°08'0 0.0
2017-Jan-16 19:34N 26°04' W 080°08'0 0.0
2017-Jan-16 18:34N 26°04' W 080°08'0 0.1
2017-Jan-16 17:34N 26°04' W 080°08'0 0.0
2017-Jan-16 16:34N 26°04' W 080°08'0 0.0
2017-Jan-16 15:34N 26°04' W 080°08'0 0.0
2017-Jan-16 14:34N 26°04' W 080°08'0 0.3
2017-Jan-16 13:33N 26°04' W 080°08'2 2.2
2017-Jan-16 12:33N 26°06' W 080°06'10 9.6
2017-Jan-16 11:33N 26°03' W 079°56'10 9.9
2017-Jan-16 10:33N 26°01' W 079°45'  
2017-Jan-11 15:34N 25°60' W 079°41'6 6.0
2017-Jan-11 14:33N 26°01' W 079°47'6 5.6
2017-Jan-11 13:33N 26°02' W 079°54'5 5.1
2017-Jan-11 12:34N 26°03' W 079°59'6 5.6
2017-Jan-11 11:33N 26°05' W 080°05'3 3.1
2017-Jan-11 10:33N 26°04' W 080°08'0 0.0
2017-Jan-11 09:33N 26°04' W 080°08'0 0.0
2017-Jan-11 08:33N 26°04' W 080°08'0 0.0
2017-Jan-11 07:34N 26°04' W 080°08'0 0.0
2017-Jan-11 06:33N 26°04' W 080°08'0 0.0
2017-Jan-11 05:34N 26°04' W 080°08'0 0.0
2017-Jan-11 04:34N 26°04' W 080°08'0 0.0
2017-Jan-11 03:34N 26°04' W 080°08'0 0.0
2017-Jan-11 02:34N 26°04' W 080°08'0 0.0
2017-Jan-11 01:34N 26°04' W 080°08'0 0.0
2017-Jan-11 00:34N 26°04' W 080°08'0 0.0
2017-Jan-10 23:34N 26°04' W 080°08'0 0.0
2017-Jan-10 22:33N 26°04' W 080°08'0 0.0
2017-Jan-10 21:34N 26°04' W 080°08'0 0.0
2017-Jan-10 20:34N 26°04' W 080°08'0 0.0
2017-Jan-10 19:34N 26°04' W 080°08'0 0.0
2017-Jan-10 18:34N 26°04' W 080°08'0 0.0
2017-Jan-10 17:34N 26°04' W 080°08'0 0.0
2017-Jan-10 16:34N 26°04' W 080°08'0 0.0
2017-Jan-10 15:34N 26°04' W 080°08'4 4.2
2017-Jan-10 14:34N 26°06' W 080°04'1 1.1
2017-Jan-10 13:34N 26°05' W 080°05'3 3.1
2017-Jan-10 12:34N 26°04' W 080°08'0 0.0
2017-Jan-10 11:34N 26°04' W 080°08'0 0.0
2017-Jan-10 10:34N 26°04' W 080°08'0 0.0
2017-Jan-10 09:34N 26°04' W 080°08'0 0.0
2017-Jan-10 08:34N 26°04' W 080°08'0 0.0
2017-Jan-10 07:34N 26°04' W 080°08'0 0.0
2017-Jan-10 06:34N 26°04' W 080°08'0 0.0
2017-Jan-10 05:34N 26°04' W 080°08'0 0.0
2017-Jan-10 04:34N 26°04' W 080°08'0 0.0
2017-Jan-10 03:34N 26°04' W 080°08'0 0.0
2017-Jan-10 02:34N 26°04' W 080°08'0 0.0
2017-Jan-10 01:34N 26°04' W 080°08'0 0.0
2017-Jan-10 00:34N 26°04' W 080°08'0 0.0
2017-Jan-09 23:34N 26°04' W 080°08'0 0.0
2017-Jan-09 22:34N 26°04' W 080°08'0 0.0
2017-Jan-09 21:34N 26°04' W 080°08'0 0.0
2017-Jan-09 20:34N 26°04' W 080°08'0 0.0
2017-Jan-09 19:34N 26°04' W 080°08'0 0.0
2017-Jan-09 18:34N 26°04' W 080°08'0 0.0
2017-Jan-09 17:34N 26°04' W 080°08'0 0.0
2017-Jan-09 16:34N 26°04' W 080°08'0 0.0
2017-Jan-09 15:33N 26°04' W 080°08'0 0.0
2017-Jan-09 14:33N 26°04' W 080°08'0 0.0
2017-Jan-09 13:34N 26°04' W 080°08'0 0.0
2017-Jan-09 12:34N 26°04' W 080°08'0 0.0
2017-Jan-09 11:34N 26°04' W 080°08'0 0.0
2017-Jan-09 10:34N 26°04' W 080°08'0 0.0
2017-Jan-09 09:34N 26°04' W 080°08'0 0.0
2017-Jan-09 08:34N 26°04' W 080°08'0 0.0
2017-Jan-09 07:34N 26°04' W 080°08'0 0.0
2017-Jan-09 06:34N 26°04' W 080°08'0 0.0
2017-Jan-09 05:34N 26°04' W 080°08'0 0.0
2017-Jan-09 04:33N 26°04' W 080°08'0 0.0
2017-Jan-09 03:33N 26°04' W 080°08'0 0.0
2017-Jan-09 02:34N 26°04' W 080°08'0 0.0
2017-Jan-09 01:34N 26°04' W 080°08'  

Dump ship's entire track history